Time;durP1;ratioP1;P1;durP2;ratioP2;P2;SDS_P1;SDS_P2;PMS_P1;PMS_P2;Temp;Humidity;BMP_temperature;BMP_pressure;BME280_temperature;BME280_humidity;BME280_pressure;Samples;Min_cycle;Max_cycle;Signal;HPM_P1;HPM_P2
2022/07/05 00:00:56;;;;;;;4.37;3.27;;;;;;;19.89;60.24;156476.03;5044113;28;20481;-82
2022/07/05 00:03:22;;;;;;;3.30;3.00;;;;;;;19.81;60.64;156456.47;5049984;28;21036;-82
2022/07/05 00:05:49;;;;;;;3.97;3.10;;;;;;;19.74;60.87;156436.91;5047262;28;20466;-82
2022/07/05 00:08:17;;;;;;;3.50;3.20;;;;;;;19.71;60.90;156430.41;5037932;28;20441;-82
2022/07/05 00:10:44;;;;;;;3.73;3.17;;;;;;;19.69;61.37;156423.88;5050141;28;20508;-82
2022/07/05 00:13:11;;;;;;;3.07;2.87;;;;;;;19.59;62.19;156397.81;5050628;28;20549;-81
2022/07/05 00:15:38;;;;;;;3.37;3.07;;;;;;;19.52;62.44;156380.84;5049408;28;20537;-82
2022/07/05 00:18:05;;;;;;;4.30;3.40;;;;;;;19.51;62.00;156376.97;5047564;28;20561;-82
2022/07/05 00:20:32;;;;;;;3.63;3.20;;;;;;;19.52;61.86;156379.53;5050804;28;20437;-82
2022/07/05 00:22:58;;;;;;;5.00;3.33;;;;;;;19.51;61.86;156378.28;5049365;28;20450;-82
2022/07/05 00:25:26;;;;;;;3.53;3.33;;;;;;;19.52;61.75;156379.53;5048214;28;20896;-82
2022/07/05 00:27:54;;;;;;;3.10;2.80;;;;;;;19.52;61.46;156380.84;5039837;28;20447;-82
2022/07/05 00:30:21;;;;;;;3.90;3.10;;;;;;;19.51;61.43;156376.97;5045017;28;20809;-82
2022/07/05 00:32:47;;;;;;;3.50;3.20;;;;;;;19.53;61.22;156382.16;5048955;28;20456;-75
2022/07/05 00:35:14;;;;;;;3.00;2.70;;;;;;;19.51;61.24;156378.28;5048318;28;20451;-75
2022/07/05 00:37:41;;;;;;;3.73;3.03;;;;;;;19.48;61.43;156369.13;5049213;28;20545;-75
2022/07/05 00:40:09;;;;;;;3.97;3.23;;;;;;;19.47;61.37;156367.81;5032469;28;20534;-75
2022/07/05 00:42:37;;;;;;;5.57;2.80;;;;;;;19.46;60.84;156363.94;5050730;28;20533;-75
2022/07/05 00:45:06;;;;;;;3.40;3.10;;;;;;;19.47;60.97;156366.50;5047094;28;20471;-75
2022/07/05 00:47:33;;;;;;;3.70;3.40;;;;;;;19.47;60.66;156367.81;5034795;28;20451;-77
2022/07/05 00:49:59;;;;;;;5.57;3.07;;;;;;;19.48;60.43;156369.13;5040567;28;20443;-77
2022/07/05 00:52:26;;;;;;;3.50;3.00;;;;;;;19.48;59.88;156369.13;5046723;28;20466;-77
2022/07/05 00:54:53;;;;;;;3.77;3.47;;;;;;;19.47;60.43;156367.81;5047768;28;20443;-75
2022/07/05 00:57:22;;;;;;;3.40;3.10;;;;;;;19.44;61.02;156361.31;5049885;28;20478;-77
2022/07/05 00:59:50;;;;;;;3.47;3.17;;;;;;;19.35;61.57;156337.78;5053057;28;20427;-75
2022/07/05 01:02:19;;;;;;;3.67;3.37;;;;;;;19.27;61.24;156315.66;5053058;28;20890;-77
2022/07/05 01:04:48;;;;;;;3.30;3.10;;;;;;;19.21;61.42;156301.31;5033920;28;20466;-77
2022/07/05 01:07:15;;;;;;;3.00;2.80;;;;;;;19.18;61.90;156292.19;5048131;28;20468;-75
2022/07/05 01:09:41;;;;;;;3.63;3.33;;;;;;;19.10;61.72;156272.63;5052486;28;20782;-77
2022/07/05 01:12:09;;;;;;;3.47;3.17;;;;;;;19.08;61.60;156267.44;5052762;28;20446;-77
2022/07/05 01:14:36;;;;;;;3.23;2.93;;;;;;;19.06;61.08;156262.19;5036268;28;20538;-74
2022/07/05 01:17:05;;;;;;;2.77;2.57;;;;;;;19.05;60.88;156259.59;5052649;28;20494;-74
2022/07/05 01:19:32;;;;;;;3.00;2.60;;;;;;;19.01;61.33;156247.91;5036276;28;20423;-74
2022/07/05 01:22:03;;;;;;;3.83;3.07;;;;;;;19.00;61.80;156246.59;5052438;28;20465;-74
2022/07/05 01:24:32;;;;;;;3.17;2.97;;;;;;;18.99;61.96;156243.97;5043017;28;20472;-77
2022/07/05 01:26:59;;;;;;;3.03;2.73;;;;;;;18.96;62.35;156236.13;5063528;28;20451;-76
2022/07/05 01:29:26;;;;;;;4.50;2.90;;;;;;;18.97;61.91;156237.44;5036518;28;20557;-77
2022/07/05 01:31:53;;;;;;;3.93;3.13;;;;;;;18.94;61.98;156229.63;5051566;28;20550;-77
2022/07/05 01:34:20;;;;;;;3.97;3.20;;;;;;;18.93;62.19;156227.03;5052531;28;20803;-77
2022/07/05 01:36:47;;;;;;;3.10;2.90;;;;;;;18.89;62.03;156216.59;5033793;28;20457;-76
2022/07/05 01:39:14;;;;;;;4.17;3.37;;;;;;;18.87;61.65;156211.41;5035190;28;20926;-77
2022/07/05 01:41:42;;;;;;;3.00;2.70;;;;;;;18.86;61.81;156210.09;5036121;28;20463;-77
2022/07/05 01:44:08;;;;;;;3.03;2.73;;;;;;;18.83;61.43;156202.25;5050126;28;20482;-77
2022/07/05 01:46:38;;;;;;;4.03;2.50;;;;;;;18.84;61.49;156204.88;5050286;28;20469;-77
2022/07/05 01:49:08;;;;;;;3.40;3.10;;;;;;;18.83;60.88;156203.56;5049876;28;20428;-77
2022/07/05 01:51:36;;;;;;;5.13;3.13;;;;;;;18.87;60.97;156211.41;5052393;28;20561;-77
2022/07/05 01:54:04;;;;;;;3.03;2.83;;;;;;;18.90;60.99;156220.53;5052140;28;20526;-76
2022/07/05 01:56:30;;;;;;;3.37;3.07;;;;;;;18.93;60.98;156228.31;5047653;28;20459;-77
2022/07/05 01:58:59;;;;;;;3.27;2.90;;;;;;;18.91;61.29;156221.78;5036948;28;20497;-77
2022/07/05 02:01:34;;;;;;;3.23;2.93;;;;;;;18.87;61.32;156212.72;5051725;28;20544;-77
2022/07/05 02:04:01;;;;;;;2.80;2.60;;;;;;;18.77;62.01;156187.91;5051587;28;20812;-77
2022/07/05 02:06:28;;;;;;;3.40;3.10;;;;;;;18.76;63.00;156184.03;5034997;28;20825;-77
2022/07/05 02:08:55;;;;;;;6.30;3.87;;;;;;;18.77;63.68;156187.91;5051678;28;20439;-77
2022/07/05 02:11:23;;;;;;;4.50;3.53;;;;;;;18.75;63.77;156182.72;5049882;28;20431;-77
2022/07/05 02:13:49;;;;;;;5.63;3.73;;;;;;;18.71;64.15;156171.00;5050963;28;20455;-77
2022/07/05 02:16:19;;;;;;;4.83;4.07;;;;;;;18.64;64.92;156152.75;5034193;28;20443;-77
2022/07/05 02:18:45;;;;;;;4.23;3.57;;;;;;;18.57;66.54;156135.84;5051885;28;20976;-77
2022/07/05 02:21:13;;;;;;;4.40;4.00;;;;;;;18.53;66.55;156125.38;5051288;28;20493;-77
2022/07/05 02:23:40;;;;;;;4.30;3.90;;;;;;;18.47;66.53;156108.44;5051368;28;20451;-77
2022/07/05 02:26:08;;;;;;;4.27;3.97;;;;;;;18.42;67.26;156095.41;5050868;28;20527;-77
2022/07/05 02:28:38;;;;;;;10.80;4.37;;;;;;;18.31;68.52;156066.75;5032143;28;20439;-76
2022/07/05 02:31:05;;;;;;;4.10;3.80;;;;;;;18.21;68.17;156043.28;5018356;28;20451;-76
2022/07/05 02:33:33;;;;;;;5.07;4.63;;;;;;;18.17;68.23;156031.56;5045736;28;20524;-77
2022/07/05 02:36:07;;;;;;;5.30;4.60;;;;;;;18.16;69.22;156029.00;5029058;28;20531;-77
2022/07/05 02:38:34;;;;;;;4.97;4.37;;;;;;;18.08;69.27;156009.41;5061361;28;20532;-77
2022/07/05 02:41:01;;;;;;;4.80;4.40;;;;;;;17.96;68.82;155978.19;5034236;28;20469;-77
2022/07/05 02:43:28;;;;;;;3.80;3.50;;;;;;;17.92;69.47;155966.50;5050829;28;20854;-77
2022/07/05 02:45:54;;;;;;;5.63;5.13;;;;;;;17.87;69.48;155954.72;5035690;28;20770;-77
2022/07/05 02:48:22;;;;;;;4.87;4.47;;;;;;;17.80;69.80;155935.22;5041874;28;20456;-77
2022/07/05 02:50:50;;;;;;;4.90;4.40;;;;;;;17.77;70.10;155927.38;5023026;28;20469;-77
2022/07/05 02:53:17;;;;;;;4.50;4.10;;;;;;;17.68;71.21;155905.28;5048503;28;20491;-77
2022/07/05 02:55:43;;;;;;;4.93;4.30;;;;;;;17.64;71.29;155896.16;5045103;28;20498;-77
2022/07/05 02:58:11;;;;;;;4.50;4.10;;;;;;;17.62;70.94;155890.97;5014371;28;20471;-77
2022/07/05 03:00:38;;;;;;;5.03;4.63;;;;;;;17.47;71.74;155850.56;5031249;28;20483;-77
2022/07/05 03:03:04;;;;;;;5.23;4.83;;;;;;;17.41;72.67;155834.94;5033882;28;20449;-77
2022/07/05 03:05:38;;;;;;;4.90;4.50;;;;;;;17.47;71.99;155851.84;5032540;28;20459;-76
2022/07/05 03:08:06;;;;;;;8.10;4.63;;;;;;;17.41;72.18;155834.94;5028771;28;20949;-77
2022/07/05 03:10:38;;;;;;;5.60;5.10;;;;;;;17.34;73.10;155816.72;5032419;28;20813;-77
2022/07/05 03:13:06;;;;;;;4.50;4.10;;;;;;;17.27;73.10;155798.47;5030237;28;20788;-77
2022/07/05 03:15:33;;;;;;;4.17;3.87;;;;;;;17.24;73.61;155791.97;5029617;28;20466;-77
2022/07/05 03:18:01;;;;;;;4.97;4.47;;;;;;;17.24;73.60;155790.66;5013721;28;20467;-83
2022/07/05 03:20:31;;;;;;;4.50;4.13;;;;;;;17.22;73.46;155786.78;5032308;28;20440;-83
2022/07/05 03:22:58;;;;;;;4.40;4.00;;;;;;;17.20;73.75;155780.28;5030576;28;20451;-83
2022/07/05 03:25:33;;;;;;;4.17;3.87;;;;;;;17.17;73.24;155772.47;5032252;28;20506;-83
2022/07/05 03:28:02;;;;;;;3.93;3.63;;;;;;;17.16;73.34;155771.16;5048742;28;20447;-83
2022/07/05 03:30:29;;;;;;;4.20;3.70;;;;;;;17.10;73.55;155754.25;5061878;28;20937;-83
2022/07/05 03:32:57;;;;;;;4.73;4.00;;;;;;;17.08;73.74;155750.34;5050250;28;20536;-83
2022/07/05 03:35:24;;;;;;;4.60;4.20;;;;;;;17.04;73.75;155741.25;5033444;28;20447;-83
2022/07/05 03:37:52;;;;;;;3.97;3.67;;;;;;;17.03;74.17;155738.63;5037487;28;20840;-83
2022/07/05 03:40:21;;;;;;;4.00;3.70;;;;;;;17.02;73.81;155736.00;5032963;28;20435;-83
2022/07/05 03:42:50;;;;;;;3.97;3.57;;;;;;;17.01;73.71;155732.13;5050328;28;20463;-83
2022/07/05 03:45:18;;;;;;;7.50;4.00;;;;;;;17.03;73.65;155738.63;5033460;28;20481;-83
2022/07/05 03:47:45;;;;;;;3.80;3.50;;;;;;;17.03;73.98;155737.31;5033650;28;20443;-83
2022/07/05 03:50:14;;;;;;;4.00;3.70;;;;;;;17.01;73.12;155733.44;5033188;28;21047;-82
2022/07/05 03:52:42;;;;;;;5.37;3.97;;;;;;;17.03;73.49;155738.63;5031791;28;20443;-82
2022/07/05 03:55:09;;;;;;;4.00;3.60;;;;;;;17.04;73.69;155739.94;5025078;28;20455;-83
2022/07/05 03:57:36;;;;;;;4.43;3.80;;;;;;;17.07;73.04;155746.44;5013184;28;20483;-82
2022/07/05 04:00:06;;;;;;;3.70;3.40;;;;;;;17.11;73.45;155756.84;5032874;28;20988;-83
2022/07/05 04:02:40;;;;;;;4.10;3.70;;;;;;;17.09;73.48;155751.63;5049946;28;20445;-83
2022/07/05 04:05:08;;;;;;;3.70;3.40;;;;;;;17.10;73.68;155754.25;5031702;28;20459;-83
2022/07/05 04:07:48;;;;;;;4.13;3.43;;;;;;;17.12;73.54;155760.78;5033956;28;20859;-83
2022/07/05 04:10:16;;;;;;;4.63;3.90;;;;;;;17.18;73.29;155775.09;5046231;28;20493;-83
2022/07/05 04:12:44;;;;;;;5.03;3.60;;;;;;;17.20;73.34;155781.59;5036175;28;20595;-83
2022/07/05 04:15:13;;;;;;;3.70;3.37;;;;;;;17.30;73.50;155806.28;5032109;28;20465;-83
2022/07/05 04:17:47;;;;;;;3.80;3.50;;;;;;;17.52;73.00;155863.59;5033150;28;20497;-83
2022/07/05 04:20:14;;;;;;;3.93;3.30;;;;;;;17.75;72.21;155923.50;5032185;28;20632;-83
2022/07/05 04:22:43;;;;;;;3.67;3.37;;;;;;;17.97;71.51;155979.50;5031482;28;20463;-83
2022/07/05 04:25:19;;;;;;;4.30;3.50;;;;;;;18.23;70.08;156048.53;5029511;28;20440;-83
2022/07/05 04:27:57;;;;;;;3.87;3.57;;;;;;;18.54;69.25;156126.69;5013999;28;20448;-83
2022/07/05 04:30:26;;;;;;;3.87;3.20;;;;;;;18.72;68.26;156173.59;5017654;28;20447;-83
2022/07/05 04:32:56;;;;;;;3.50;3.20;;;;;;;18.97;66.51;156238.75;5031521;28;20937;-83
2022/07/05 04:35:23;;;;;;;3.30;3.00;;;;;;;19.20;64.00;156298.69;5048856;28;20469;-83
2022/07/05 04:37:51;;;;;;;3.73;3.43;;;;;;;19.43;63.68;156358.69;5032069;28;20512;-83
2022/07/05 04:40:20;;;;;;;3.43;3.13;;;;;;;19.55;63.25;156387.38;5032457;28;20434;-83
2022/07/05 04:42:46;;;;;;;2.87;2.67;;;;;;;19.81;62.20;156455.16;5030990;28;20459;-83
2022/07/05 04:45:15;;;;;;;3.47;2.87;;;;;;;19.97;61.48;156498.19;5049184;28;20478;-83
2022/07/05 04:47:44;;;;;;;4.60;2.80;;;;;;;20.18;60.12;156551.66;5037301;28;20486;-83
2022/07/05 04:50:11;;;;;;;4.50;2.60;;;;;;;20.48;59.36;156628.66;5032238;28;20427;-83
2022/07/05 04:52:38;;;;;;;2.40;2.20;;;;;;;20.78;58.17;156705.66;5032415;28;20511;-83
2022/07/05 04:55:05;;;;;;;3.73;2.60;;;;;;;20.86;56.66;156727.84;5043956;28;20443;-83
2022/07/05 04:57:38;;;;;;;4.67;2.57;;;;;;;20.96;56.84;156752.63;5048383;28;20491;-83
2022/07/05 05:00:05;;;;;;;2.83;2.43;;;;;;;21.00;56.00;156764.34;5048454;28;20435;-83
2022/07/05 05:02:32;;;;;;;2.73;2.40;;;;;;;21.05;55.17;156776.06;5041953;28;20914;-83
2022/07/05 05:05:00;;;;;;;3.00;2.33;;;;;;;21.08;55.47;156783.97;5046556;28;20969;-83
2022/07/05 05:07:27;;;;;;;2.40;2.20;;;;;;;21.25;55.08;156828.34;5032045;28;20514;-84
2022/07/05 05:09:54;;;;;;;2.30;2.10;;;;;;;21.27;53.97;156833.56;5041636;28;20454;-83
2022/07/05 05:12:21;;;;;;;2.67;2.20;;;;;;;21.36;53.80;156855.75;5048787;28;20455;-83
2022/07/05 05:14:47;;;;;;;2.40;2.20;;;;;;;21.53;53.23;156900.13;5050278;28;20463;-83
2022/07/05 05:17:14;;;;;;;4.17;2.57;;;;;;;21.60;52.38;156918.44;5045215;28;20554;-83
2022/07/05 05:19:41;;;;;;;2.50;2.30;;;;;;;21.74;52.45;156956.25;5029029;28;20808;-83
2022/07/05 05:22:09;;;;;;;2.60;2.40;;;;;;;21.84;51.61;156982.38;5043983;28;20517;-83
2022/07/05 05:24:36;;;;;;;2.43;2.23;;;;;;;21.92;51.21;157000.72;5046438;28;20864;-83
2022/07/05 05:27:03;;;;;;;2.80;2.60;;;;;;;21.84;51.03;156981.09;5050017;28;20521;-83
2022/07/05 05:29:29;;;;;;;2.13;1.93;;;;;;;21.77;51.36;156964.09;5046028;28;20516;-83
2022/07/05 05:31:56;;;;;;;3.17;2.10;;;;;;;21.81;50.72;156974.56;5050515;28;20550;-83
2022/07/05 05:34:23;;;;;;;2.37;2.17;;;;;;;21.89;51.84;156992.88;5031716;28;20983;-83
2022/07/05 05:36:49;;;;;;;2.83;2.63;;;;;;;21.98;50.62;157016.38;5042484;28;20446;-83
2022/07/05 05:39:18;;;;;;;2.47;2.27;;;;;;;22.13;50.60;157055.56;5046623;28;20450;-83
2022/07/05 05:41:44;;;;;;;2.10;1.90;;;;;;;22.18;50.39;157068.63;5049256;28;20833;-83
2022/07/05 05:44:11;;;;;;;3.10;2.53;;;;;;;22.11;49.98;157050.31;5043963;28;20503;-83
2022/07/05 05:46:38;;;;;;;2.33;2.17;;;;;;;22.11;49.86;157051.63;5053468;28;20485;-83
2022/07/05 05:49:05;;;;;;;2.57;2.37;;;;;;;22.21;49.64;157076.47;5052800;28;20466;-83
2022/07/05 05:51:31;;;;;;;2.30;2.10;;;;;;;22.06;49.43;157037.25;5050994;28;20454;-83
2022/07/05 05:53:58;;;;;;;2.43;2.23;;;;;;;22.08;50.21;157042.53;5041582;28;20435;-83
2022/07/05 05:56:26;;;;;;;4.20;2.17;;;;;;;22.12;50.28;157052.94;5036794;28;20554;-83
2022/07/05 05:58:53;;;;;;;2.60;2.40;;;;;;;22.54;50.00;157162.66;5064340;28;20899;-83
2022/07/05 06:01:20;;;;;;;3.43;2.53;;;;;;;22.76;48.90;157220.22;5049763;28;20451;-83
2022/07/05 06:03:47;;;;;;;2.90;2.70;;;;;;;23.11;49.15;157309.06;5048400;28;20972;-83
2022/07/05 06:06:13;;;;;;;2.87;2.57;;;;;;;23.39;47.59;157382.28;5051181;28;20482;-83
2022/07/05 06:08:40;;;;;;;3.43;2.23;;;;;;;23.35;47.76;157371.78;5051214;28;20463;-84
2022/07/05 06:11:07;;;;;;;3.83;2.83;;;;;;;23.50;46.95;157411.03;5046880;28;21081;-83
2022/07/05 06:13:35;;;;;;;3.53;2.90;;;;;;;23.21;46.97;157335.19;5019822;28;20462;-83
2022/07/05 06:16:02;;;;;;;3.40;2.37;;;;;;;23.16;47.43;157322.13;5045669;28;20498;-84
2022/07/05 06:18:29;;;;;;;3.10;2.80;;;;;;;23.10;47.23;157306.41;5053318;28;20549;-84
2022/07/05 06:20:58;;;;;;;3.53;2.73;;;;;;;22.87;48.17;157248.97;5045427;28;20475;-83
2022/07/05 06:23:24;;;;;;;2.40;2.20;;;;;;;22.93;48.14;157264.59;5033055;28;20444;-84
2022/07/05 06:25:51;;;;;;;2.23;1.87;;;;;;;23.35;48.01;157371.78;5031749;28;20544;-83
2022/07/05 06:28:18;;;;;;;3.67;2.30;;;;;;;23.84;46.96;157499.94;5032182;28;21001;-84
2022/07/05 06:30:46;;;;;;;3.13;2.50;;;;;;;24.11;47.37;157569.28;5046474;28;20518;-84
2022/07/05 06:33:13;;;;;;;2.77;2.33;;;;;;;24.51;46.82;157672.59;5052174;28;20449;-84
2022/07/05 06:35:39;;;;;;;2.97;2.30;;;;;;;24.92;45.69;157779.91;5051777;28;20464;-84
2022/07/05 06:38:08;;;;;;;3.07;2.70;;;;;;;25.18;45.83;157846.63;5049681;28;20946;-84
2022/07/05 06:40:36;;;;;;;3.60;2.77;;;;;;;25.46;43.87;157920.00;5036148;28;20454;-84
2022/07/05 06:43:05;;;;;;;2.60;2.40;;;;;;;25.59;44.10;157952.69;5030489;28;20506;-84
2022/07/05 06:45:40;;;;;;;2.23;2.03;;;;;;;25.63;43.96;157964.47;5056788;28;20509;-84
2022/07/05 06:48:09;;;;;;;4.97;2.60;;;;;;;25.71;43.55;157985.41;5046423;28;20449;-84
2022/07/05 06:50:37;;;;;;;3.60;2.27;;;;;;;25.76;43.77;157997.22;5051744;28;20471;-84
2022/07/05 06:53:04;;;;;;;2.60;2.40;;;;;;;26.16;42.55;158101.97;5033644;28;20454;-84
2022/07/05 06:55:31;;;;;;;2.50;2.30;;;;;;;25.96;41.31;158049.59;5048447;28;20533;-84
2022/07/05 06:57:59;;;;;;;2.60;2.40;;;;;;;26.06;42.72;158075.75;5050667;28;20458;-84
2022/07/05 07:00:27;;;;;;;3.50;2.50;;;;;;;25.98;42.04;158054.81;5034258;28;20923;-84
2022/07/05 07:02:53;;;;;;;3.73;2.60;;;;;;;26.32;41.33;158143.88;5047161;28;20456;-84
2022/07/05 07:05:21;;;;;;;2.70;2.50;;;;;;;26.56;41.02;158206.75;5043213;28;20534;-80
2022/07/05 07:10:33;;;;;;;2.53;2.30;;;;;;;26.99;40.58;158316.84;5050046;28;20532;-93
2022/07/05 07:13:00;;;;;;;2.13;1.90;;;;;;;26.93;40.56;158301.09;5048720;28;20447;-85
2022/07/05 07:15:27;;;;;;;2.77;2.57;;;;;;;26.98;40.03;158314.25;5049580;28;20479;-85
2022/07/05 07:17:54;;;;;;;2.50;2.30;;;;;;;26.66;40.55;158230.34;5047347;28;20566;-85
2022/07/05 07:20:22;;;;;;;3.07;2.20;;;;;;;27.11;40.00;158349.59;5049293;28;20459;-85
2022/07/05 07:22:49;;;;;;;3.20;2.20;;;;;;;27.30;39.54;158396.78;5045289;28;20459;-85
2022/07/05 07:25:17;;;;;;;2.20;2.00;;;;;;;27.08;40.60;158340.44;5051257;28;20538;-85
2022/07/05 07:27:44;;;;;;;2.77;2.57;;;;;;;27.12;40.59;158350.91;5050170;28;20478;-85
2022/07/05 07:30:13;;;;;;;2.53;2.30;;;;;;;27.50;39.11;158450.56;5050625;28;20435;-85
2022/07/05 07:32:39;;;;;;;3.43;2.20;;;;;;;27.73;37.97;158510.84;5047244;28;20510;-85
2022/07/05 07:35:07;;;;;;;2.33;2.13;;;;;;;27.69;38.60;158500.31;5046002;28;20467;-85
2022/07/05 07:37:36;;;;;;;2.20;2.00;;;;;;;27.55;38.70;158463.66;5051359;28;20451;-86
2022/07/05 07:40:03;;;;;;;4.20;2.37;;;;;;;27.23;39.56;158379.75;5042287;28;20475;-85
2022/07/05 07:42:29;;;;;;;3.00;2.13;;;;;;;27.33;39.28;158405.94;5051504;28;20613;-85
2022/07/05 07:44:56;;;;;;;2.47;2.27;;;;;;;27.37;39.73;158416.44;5045668;28;20455;-85
2022/07/05 07:47:23;;;;;;;1.80;1.70;;;;;;;27.32;38.63;158403.34;5049992;28;21027;-85
2022/07/05 07:49:50;;;;;;;6.37;2.40;;;;;;;27.40;39.44;158424.38;5047666;28;20533;-85
2022/07/05 07:52:17;;;;;;;2.47;2.17;;;;;;;27.80;38.58;158529.16;5050904;28;20795;-85
2022/07/05 07:54:45;;;;;;;3.60;2.20;;;;;;;27.59;38.77;158472.81;5051369;28;20938;-86
2022/07/05 07:57:11;;;;;;;2.43;2.23;;;;;;;27.61;38.63;158478.09;5044264;28;20451;-85
2022/07/05 07:59:38;;;;;;;2.23;2.10;;;;;;;27.84;38.46;158538.38;5048944;28;20466;-85
2022/07/05 08:02:05;;;;;;;2.53;2.33;;;;;;;27.77;38.36;158520.03;5051200;28;20815;-85
2022/07/05 08:04:32;;;;;;;3.70;2.87;;;;;;;28.00;39.24;158580.31;5047087;28;20454;-78
2022/07/05 08:06:59;;;;;;;2.73;2.30;;;;;;;28.51;38.20;158711.47;5050585;28;20478;-78
2022/07/05 08:09:26;;;;;;;4.17;2.10;;;;;;;28.60;37.84;158736.38;5049177;28;20692;-78
2022/07/05 08:11:54;;;;;;;3.70;2.20;;;;;;;28.52;37.53;158714.06;5051456;28;20469;-78
2022/07/05 08:14:20;;;;;;;2.07;1.90;;;;;;;28.31;36.07;158660.31;5043234;28;20451;-78
2022/07/05 08:16:48;;;;;;;2.70;2.50;;;;;;;27.95;36.38;158567.22;5045704;28;20546;-78
2022/07/05 08:21:59;;;;;;;3.00;2.67;;;;;;;28.69;37.13;158760.06;5048990;28;20458;-78
2022/07/05 08:24:25;;;;;;;2.13;1.93;;;;;;;28.54;35.44;158720.63;5049356;28;20470;-78
2022/07/05 08:26:54;;;;;;;4.20;2.50;;;;;;;28.60;34.77;158736.38;5049939;28;20481;-78
2022/07/05 08:29:20;;;;;;;2.53;2.33;;;;;;;28.72;36.27;158766.59;5049486;28;20501;-79
2022/07/05 08:31:49;;;;;;;3.63;2.50;;;;;;;29.16;34.82;158880.69;5041834;28;20581;-78
2022/07/05 08:34:17;;;;;;;2.07;1.87;;;;;;;29.47;34.97;158962.09;5045471;28;20958;-79
2022/07/05 08:36:44;;;;;;;2.40;2.20;;;;;;;30.00;35.34;159101.25;5050366;28;20567;-79
2022/07/05 08:39:11;;;;;;;3.27;2.20;;;;;;;30.32;33.92;159182.63;5049912;28;20530;-76
2022/07/05 08:41:39;;;;;;;2.70;2.40;;;;;;;30.55;34.23;159243.09;5048768;28;20942;-79
2022/07/05 08:44:08;;;;;;;2.43;2.23;;;;;;;30.69;33.47;159281.16;5050888;28;20450;-79
2022/07/05 08:46:38;;;;;;;2.20;2.00;;;;;;;30.84;32.70;159319.25;5047932;28;20461;-79
2022/07/05 08:49:05;;;;;;;4.43;2.33;;;;;;;29.83;34.25;159056.66;5061424;28;20892;-79
2022/07/05 08:51:34;;;;;;;5.63;2.20;;;;;;;28.95;35.56;158826.94;5046739;28;20520;-79
2022/07/05 08:54:01;;;;;;;2.20;2.00;;;;;;;29.10;35.14;158866.28;5047397;28;20461;-78
2022/07/05 08:56:29;;;;;;;3.40;1.87;;;;;;;29.01;34.38;158841.38;5049883;28;20445;-79
2022/07/05 08:58:56;;;;;;;2.33;2.13;;;;;;;28.73;35.63;158770.53;5049033;28;20573;-79
2022/07/05 09:01:25;;;;;;;4.13;2.60;;;;;;;28.62;35.10;158740.41;5048973;28;20453;-79
2022/07/05 09:03:53;;;;;;;2.47;2.23;;;;;;;28.95;35.94;158828.25;5049169;28;20999;-79
2022/07/05 09:06:22;;;;;;;4.00;2.20;;;;;;;29.35;34.63;158931.94;5047044;28;20532;-79
2022/07/05 09:08:51;;;;;;;1.70;1.60;;;;;;;29.80;33.54;159048.78;5050026;28;20422;-79
2022/07/05 09:11:24;;;;;;;5.10;2.23;;;;;;;29.62;34.29;159001.50;5047152;28;20648;-79
2022/07/05 09:13:51;;;;;;;2.10;1.90;;;;;;;29.97;33.20;159093.38;5049392;28;20438;-79
2022/07/05 09:16:18;;;;;;;2.40;2.20;;;;;;;29.68;33.10;159015.94;5048595;28;20473;-77
2022/07/05 09:18:48;;;;;;;2.37;2.17;;;;;;;28.67;36.62;158753.50;5047313;28;20458;-77
2022/07/05 09:21:16;;;;;;;2.77;2.10;;;;;;;28.97;35.36;158833.50;5050682;28;20443;-77
2022/07/05 09:23:43;;;;;;;4.07;2.10;;;;;;;28.76;35.90;158778.41;5052461;28;20991;-77
2022/07/05 09:26:10;;;;;;;4.53;2.30;;;;;;;29.40;35.45;158945.06;5052050;28;20484;-75
2022/07/05 09:28:37;;;;;;;2.00;1.80;;;;;;;29.85;34.71;159060.56;5049763;28;21067;-77
2022/07/05 09:31:04;;;;;;;3.30;2.10;;;;;;;30.18;33.40;159148.50;5047977;28;20574;-77
2022/07/05 09:33:31;;;;;;;4.80;2.00;;;;;;;30.44;33.24;159214.22;5049001;28;20533;-77
2022/07/05 09:35:59;;;;;;;2.23;2.00;;;;;;;29.53;32.70;158977.84;5054126;28;20439;-77
2022/07/05 09:38:26;;;;;;;2.53;1.73;;;;;;;28.98;33.70;158836.13;5053530;28;20458;-77
2022/07/05 09:40:54;;;;;;;2.37;1.90;;;;;;;28.99;33.84;158838.72;5044495;28;20445;-77
2022/07/05 09:43:22;;;;;;;1.90;1.77;;;;;;;28.25;35.07;158645.91;5052109;28;20817;-77
2022/07/05 09:45:54;;;;;;;3.37;2.03;;;;;;;29.03;35.05;158846.59;5053744;28;20545;-77
2022/07/05 09:48:21;;;;;;;1.97;1.77;;;;;;;29.19;34.74;158888.59;5053356;28;21331;-77
2022/07/05 09:50:49;;;;;;;2.47;2.10;;;;;;;29.43;33.22;158951.63;5054394;28;20443;-77
2022/07/05 09:53:18;;;;;;;1.97;1.87;;;;;;;29.40;33.34;158943.75;5033858;28;20968;-77
2022/07/05 09:56:01;;;;;;;3.40;2.00;;;;;;;29.56;32.98;158985.72;5025866;28;20442;-77
2022/07/05 09:58:28;;;;;;;2.00;1.80;;;;;;;30.05;33.09;159114.38;5044561;28;20548;-77
2022/07/05 10:00:55;;;;;;;2.10;1.90;;;;;;;29.53;32.70;158979.16;5048214;28;20438;-77
2022/07/05 10:03:21;;;;;;;4.73;2.40;;;;;;;28.87;32.90;158807.25;5055133;28;20442;-77
2022/07/05 10:05:48;;;;;;;4.63;2.00;;;;;;;28.59;33.57;158732.47;5052029;28;20490;-77
2022/07/05 10:08:15;;;;;;;1.80;1.70;;;;;;;28.41;33.55;158686.53;5053603;28;20506;-76
2022/07/05 10:10:44;;;;;;;2.47;1.53;;;;;;;28.23;33.03;158640.66;5053553;28;20494;-77
2022/07/05 10:13:11;;;;;;;1.60;1.50;;;;;;;28.11;32.88;158607.91;5035802;28;20535;-77
2022/07/05 10:15:38;;;;;;;3.50;2.00;;;;;;;27.54;33.46;158461.03;5047959;28;20498;-76
2022/07/05 10:18:07;;;;;;;1.70;1.60;;;;;;;27.37;33.45;158416.44;5049098;28;20447;-77
2022/07/05 10:20:35;;;;;;;2.57;1.67;;;;;;;27.04;34.63;158329.94;5038721;28;20446;-76
2022/07/05 10:23:03;;;;;;;1.80;1.70;;;;;;;26.97;33.12;158312.94;5052554;28;20504;-76
2022/07/05 10:25:30;;;;;;;4.27;1.90;;;;;;;26.67;34.79;158232.94;5049314;28;21025;-76
2022/07/05 10:27:58;;;;;;;2.00;1.70;;;;;;;26.86;33.98;158282.78;5051196;28;20471;-76
2022/07/05 10:30:26;;;;;;;5.40;2.20;;;;;;;27.51;35.21;158451.88;5052583;28;20821;-76
2022/07/05 10:32:53;;;;;;;2.50;1.63;;;;;;;27.94;33.61;158563.25;5048977;28;20450;-76
2022/07/05 10:35:21;;;;;;;2.00;1.80;;;;;;;27.87;31.43;158544.91;5049269;28;20443;-76
2022/07/05 10:37:48;;;;;;;1.47;1.37;;;;;;;27.38;32.56;158419.03;5047253;28;20863;-76
2022/07/05 10:40:16;;;;;;;1.97;1.67;;;;;;;27.03;32.48;158327.34;5043288;28;20832;-76
2022/07/05 10:42:45;;;;;;;2.40;1.90;;;;;;;26.75;32.62;158255.22;5051413;28;20845;-76
2022/07/05 10:45:30;;;;;;;2.77;1.60;;;;;;;26.25;33.29;158125.56;5053567;28;20470;-76
2022/07/05 10:48:13;;;;;;;2.17;1.60;;;;;;;26.30;33.17;158137.34;5058293;28;21113;-76
2022/07/05 10:50:45;;;;;;;3.53;2.10;;;;;;;26.37;35.47;158156.97;5055026;28;20487;-76
2022/07/05 10:53:12;;;;;;;3.40;2.37;;;;;;;26.48;34.21;158185.81;5035683;28;20447;-76
2022/07/05 10:55:49;;;;;;;2.27;2.07;;;;;;;26.51;34.35;158193.66;5053862;28;20434;-76
2022/07/05 10:58:23;;;;;;;2.03;1.90;;;;;;;26.27;34.18;158129.47;5046141;28;20578;-76
2022/07/05 11:01:43;;;;;;;3.70;2.00;;;;;;;25.93;34.54;158041.72;5048089;28;20436;-76
2022/07/05 11:04:29;;;;;;;2.60;1.80;;;;;;;25.95;36.50;158046.94;5051820;28;20451;-76
2022/07/05 11:06:57;;;;;;;2.83;2.20;;;;;;;26.23;36.76;158120.34;5037045;28;20843;-76
2022/07/05 11:09:24;;;;;;;2.60;1.60;;;;;;;26.26;35.67;158128.22;5048569;28;20556;-76
2022/07/05 11:12:10;;;;;;;1.93;1.70;;;;;;;26.32;36.56;158143.88;5051673;28;20490;-76
2022/07/05 11:14:45;;;;;;;1.63;1.53;;;;;;;26.42;34.65;158170.06;5052263;28;20508;-76
2022/07/05 11:17:26;;;;;;;1.70;1.60;;;;;;;26.31;34.79;158139.97;5043241;28;20492;-76
2022/07/05 11:20:12;;;;;;;1.70;1.60;;;;;;;26.45;36.76;158177.94;5051865;28;20748;-76
2022/07/05 11:22:41;;;;;;;1.93;1.73;;;;;;;26.65;35.72;158227.72;5050976;28;20513;-76
2022/07/05 11:25:10;;;;;;;2.70;1.87;;;;;;;27.08;34.32;158341.75;5044839;28;20551;-76
2022/07/05 11:27:37;;;;;;;2.63;2.40;;;;;;;26.69;34.36;158239.50;5039285;28;20489;-76
2022/07/05 11:30:05;;;;;;;1.90;1.80;;;;;;;26.38;34.29;158159.63;5056199;28;20426;-76
2022/07/05 11:32:42;;;;;;;2.30;1.80;;;;;;;26.15;36.10;158098.06;5048759;28;20439;-76
2022/07/05 11:35:14;;;;;;;2.70;1.87;;;;;;;25.97;35.25;158053.47;5050060;28;20449;-76